createdAt,value
2022-12-11T00:01:26.878Z,49.00
2022-12-11T00:03:53.416Z,42.00
2022-12-11T00:06:22.109Z,45.50
2022-12-11T00:08:53.226Z,42.50
2022-12-11T00:11:20.563Z,44.10
2022-12-11T00:13:46.904Z,44.70
2022-12-11T00:16:14.879Z,45.30
2022-12-11T00:18:41.764Z,47.80
2022-12-11T00:21:11.751Z,41.10
2022-12-11T00:23:38.624Z,41.70
2022-12-11T00:26:07.070Z,34.40
2022-12-11T00:28:33.691Z,40.40
2022-12-11T00:31:04.625Z,37.80
2022-12-11T00:33:31.006Z,39.30
2022-12-11T00:35:57.373Z,40.60
2022-12-11T00:38:24.040Z,43.10
2022-12-11T00:40:50.666Z,39.90
2022-12-11T00:43:17.149Z,38.00
2022-12-11T00:45:45.503Z,39.70
2022-12-11T00:48:12.678Z,38.10
2022-12-11T00:50:39.654Z,36.80
2022-12-11T00:53:06.695Z,38.00
2022-12-11T00:55:37.583Z,37.70
2022-12-11T00:58:04.098Z,43.20
2022-12-11T01:00:30.605Z,38.40
2022-12-11T01:02:57.022Z,41.30
2022-12-11T01:05:23.417Z,46.00
2022-12-11T01:07:49.813Z,38.90
2022-12-11T01:10:25.657Z,40.40
2022-12-11T01:12:59.836Z,41.70
2022-12-11T01:15:32.175Z,40.20
2022-12-11T01:17:58.890Z,41.10
2022-12-11T01:20:27.558Z,37.80
2022-12-11T01:22:55.604Z,44.40
2022-12-11T01:25:22.032Z,41.00
2022-12-11T01:27:53.290Z,36.80
2022-12-11T01:30:20.604Z,35.80
2022-12-11T01:32:47.298Z,42.70
2022-12-11T01:35:14.324Z,41.10
2022-12-11T01:37:41.106Z,38.20
2022-12-11T01:40:09.063Z,40.20
2022-12-11T01:42:35.462Z,41.10
2022-12-11T01:45:20.836Z,36.80
2022-12-11T01:48:11.388Z,41.00
2022-12-11T01:50:42.190Z,34.80
2022-12-11T01:53:11.985Z,37.50
2022-12-11T01:55:39.338Z,32.80
2022-12-11T01:58:06.336Z,36.10
2022-12-11T02:00:32.711Z,34.00
2022-12-11T02:02:59.057Z,32.80
2022-12-11T02:05:25.455Z,38.40
2022-12-11T02:07:57.769Z,34.30
2022-12-11T02:12:56.036Z,37.90
2022-12-11T02:15:33.042Z,37.40
2022-12-11T02:18:20.016Z,40.20
2022-12-11T02:20:55.436Z,42.20
2022-12-11T02:23:58.291Z,35.00
2022-12-11T02:26:48.927Z,34.40
2022-12-11T02:29:22.588Z,36.10
2022-12-11T02:32:03.311Z,37.50
2022-12-11T02:34:45.079Z,33.90
2022-12-11T02:37:16.228Z,35.50
2022-12-11T02:39:43.923Z,39.70
2022-12-11T02:42:11.127Z,33.30
2022-12-11T02:44:38.845Z,36.20
2022-12-11T02:47:08.023Z,41.80
2022-12-11T02:49:34.977Z,35.80
2022-12-11T02:52:03.561Z,39.50
2022-12-11T02:54:32.731Z,39.00
2022-12-11T02:57:06.809Z,32.00
2022-12-11T02:59:36.612Z,42.40
2022-12-11T03:02:03.669Z,37.00
2022-12-11T03:04:30.683Z,38.10
2022-12-11T03:07:01.185Z,41.70
2022-12-11T03:09:28.002Z,34.00
2022-12-11T03:11:54.545Z,34.70
2022-12-11T03:14:20.873Z,39.50
2022-12-11T03:16:56.419Z,36.20
2022-12-11T03:19:41.874Z,36.50
2022-12-11T03:22:12.208Z,37.10
2022-12-11T03:25:02.140Z,38.00
2022-12-11T03:27:39.591Z,40.10
2022-12-11T03:30:17.778Z,35.30
2022-12-11T03:32:50.923Z,36.30
2022-12-11T03:35:34.973Z,31.90
2022-12-11T03:38:06.459Z,32.40
2022-12-11T03:40:35.082Z,34.20
2022-12-11T03:43:02.514Z,39.50
2022-12-11T03:45:29.632Z,39.40
2022-12-11T03:47:57.596Z,34.70
2022-12-11T03:50:25.980Z,38.00
2022-12-11T03:52:53.367Z,38.40
2022-12-11T03:55:21.075Z,39.60
2022-12-11T03:57:47.884Z,32.80
2022-12-11T04:00:17.422Z,30.20
2022-12-11T04:02:43.961Z,34.20
2022-12-11T04:05:11.376Z,36.60
2022-12-11T04:07:37.974Z,37.50
2022-12-11T04:10:05.894Z,36.50
2022-12-11T04:12:32.280Z,32.40
2022-12-11T04:15:01.617Z,33.10
2022-12-11T04:17:52.895Z,33.80
2022-12-11T04:20:38.316Z,33.00
2022-12-11T04:23:25.706Z,32.10
2022-12-11T04:25:52.045Z,30.20
2022-12-11T04:28:18.329Z,35.60
2022-12-11T04:30:48.899Z,31.30
2022-12-11T04:33:15.299Z,34.90
2022-12-11T04:35:41.622Z,32.80
2022-12-11T04:38:07.944Z,35.90
2022-12-11T04:40:34.283Z,34.80
2022-12-11T04:43:00.607Z,34.90
2022-12-11T04:45:26.943Z,32.60
2022-12-11T04:47:53.309Z,34.60
2022-12-11T04:50:19.708Z,34.50
2022-12-11T04:52:46.114Z,32.60
2022-12-11T04:55:12.986Z,34.90
2022-12-11T04:57:40.178Z,28.40
2022-12-11T05:00:10.195Z,32.30
2022-12-11T05:02:38.079Z,30.40
2022-12-11T05:05:05.843Z,33.30
2022-12-11T05:07:32.326Z,32.70
2022-12-11T05:09:58.671Z,31.10
2022-12-11T05:12:25.139Z,31.70
2022-12-11T05:14:54.957Z,36.40
2022-12-11T05:17:21.891Z,34.10
2022-12-11T05:19:49.544Z,31.90
2022-12-11T05:22:17.066Z,33.50
2022-12-11T05:24:44.312Z,32.50
2022-12-11T05:27:10.957Z,33.00
2022-12-11T05:29:37.332Z,28.40
2022-12-11T05:32:04.396Z,28.70
2022-12-11T05:34:30.876Z,31.30
2022-12-11T05:36:57.209Z,29.90
2022-12-11T05:39:23.622Z,28.00
2022-12-11T05:41:49.955Z,30.60
2022-12-11T05:44:16.255Z,23.30
2022-12-11T05:46:42.726Z,39.10
2022-12-11T05:49:09.672Z,36.10
2022-12-11T05:51:36.015Z,29.70
2022-12-11T05:54:02.681Z,30.30
2022-12-11T05:56:31.393Z,29.40
2022-12-11T05:58:59.569Z,30.30
2022-12-11T06:01:35.528Z,31.50
2022-12-11T06:04:02.312Z,35.80
2022-12-11T06:06:28.703Z,28.80
2022-12-11T06:08:57.858Z,33.30
2022-12-11T06:11:25.162Z,31.90
2022-12-11T06:13:52.137Z,30.80
2022-12-11T06:16:19.462Z,27.30
2022-12-11T06:18:46.140Z,29.50
2022-12-11T06:21:25.782Z,33.30
2022-12-11T06:23:53.748Z,30.80
2022-12-11T06:26:21.088Z,31.60
2022-12-11T06:28:48.033Z,31.70
2022-12-11T06:31:15.704Z,36.20
2022-12-11T06:33:42.873Z,30.40
2022-12-11T06:36:20.702Z,33.40
2022-12-11T06:38:47.626Z,39.60
2022-12-11T06:41:14.649Z,28.40
2022-12-11T06:43:42.385Z,30.30
2022-12-11T06:46:15.095Z,38.70
2022-12-11T06:48:42.601Z,31.10
2022-12-11T06:51:11.810Z,35.40
2022-12-11T06:53:38.912Z,33.30
2022-12-11T06:56:07.668Z,37.10
2022-12-11T06:58:35.541Z,35.80
2022-12-11T07:01:03.773Z,31.90
2022-12-11T07:03:30.409Z,34.40
2022-12-11T07:06:01.597Z,34.50
2022-12-11T07:08:28.783Z,33.80
2022-12-11T07:10:55.170Z,34.80
2022-12-11T07:13:21.832Z,33.20
2022-12-11T07:15:48.223Z,33.20
2022-12-11T07:18:14.547Z,32.30
2022-12-11T07:20:40.899Z,35.80
2022-12-11T07:23:07.453Z,31.50
2022-12-11T07:25:33.745Z,31.80
2022-12-11T07:28:00.037Z,28.80
2022-12-11T07:30:26.400Z,28.60
2022-12-11T07:32:52.771Z,27.70
2022-12-11T07:35:19.170Z,31.20
2022-12-11T07:37:45.511Z,33.00
2022-12-11T07:40:13.014Z,30.30
2022-12-11T07:42:45.834Z,27.50
2022-12-11T07:45:12.954Z,32.80
2022-12-11T07:47:39.533Z,31.20
2022-12-11T07:50:06.032Z,34.40
2022-12-11T07:52:33.278Z,28.70
2022-12-11T07:54:59.803Z,31.30
2022-12-11T07:57:27.070Z,30.90
2022-12-11T07:59:53.433Z,27.40
2022-12-11T08:02:19.812Z,27.20
2022-12-11T08:04:46.272Z,27.30
2022-12-11T08:07:12.709Z,28.80
2022-12-11T08:09:39.242Z,25.20
2022-12-11T08:12:05.644Z,27.10
2022-12-11T08:14:32.106Z,31.80
2022-12-11T08:16:59.534Z,26.80
2022-12-11T08:19:27.230Z,27.30
2022-12-11T08:21:53.657Z,33.20
2022-12-11T08:24:20.256Z,26.80
2022-12-11T08:26:47.703Z,30.30
2022-12-11T08:29:14.336Z,30.80
2022-12-11T08:31:41.525Z,23.80
2022-12-11T08:34:08.063Z,29.60
2022-12-11T08:36:34.436Z,28.80
2022-12-11T08:39:00.736Z,28.10
2022-12-11T08:41:28.916Z,27.80
2022-12-11T08:43:56.876Z,29.50
2022-12-11T08:46:25.218Z,25.60
2022-12-11T08:48:52.544Z,25.00
2022-12-11T08:51:20.456Z,31.60
2022-12-11T08:53:46.824Z,28.20
2022-12-11T08:56:15.996Z,28.90
2022-12-11T08:58:43.339Z,29.10
2022-12-11T09:01:23.622Z,30.20
2022-12-11T09:03:51.110Z,22.60
2022-12-11T09:06:20.250Z,24.50
2022-12-11T09:08:52.177Z,25.60
2022-12-11T09:11:22.350Z,24.00
2022-12-11T09:13:48.833Z,24.80
2022-12-11T09:16:17.199Z,25.20
2022-12-11T09:18:47.684Z,21.90
2022-12-11T09:21:16.552Z,24.50
2022-12-11T09:23:43.797Z,28.70
2022-12-11T09:26:12.721Z,22.90
2022-12-11T09:28:45.705Z,24.10
2022-12-11T09:31:15.544Z,23.70
2022-12-11T09:33:42.192Z,24.90
2022-12-11T09:36:09.378Z,26.10
2022-12-11T09:38:35.938Z,24.70
2022-12-11T09:41:20.889Z,19.10
2022-12-11T09:44:11.990Z,21.50
2022-12-11T09:46:40.294Z,25.00
2022-12-11T09:49:17.595Z,25.00
2022-12-11T09:51:51.693Z,29.70
2022-12-11T09:54:18.053Z,25.00
2022-12-11T09:56:59.635Z,23.30
2022-12-11T10:00:17.632Z,22.30
2022-12-11T10:02:55.690Z,25.00
2022-12-11T10:05:30.554Z,21.70
2022-12-11T10:08:08.652Z,21.80
2022-12-11T10:10:42.375Z,21.20
2022-12-11T10:13:36.432Z,22.80
2022-12-11T10:16:12.374Z,22.10
2022-12-11T10:18:39.542Z,21.50
2022-12-11T10:21:06.468Z,22.40
2022-12-11T10:23:42.646Z,23.60
2022-12-11T10:26:16.959Z,26.10
2022-12-11T10:28:43.691Z,20.70
2022-12-11T10:31:17.849Z,24.40
2022-12-11T10:33:59.135Z,21.80
2022-12-11T10:36:40.170Z,24.20
2022-12-11T10:39:15.139Z,25.20
2022-12-11T10:41:47.676Z,22.00
2022-12-11T10:44:24.694Z,28.50
2022-12-11T10:47:10.114Z,22.70
2022-12-11T10:49:38.413Z,21.90
2022-12-11T10:52:17.847Z,20.90
2022-12-11T10:54:48.129Z,23.20
2022-12-11T10:57:15.097Z,18.80
2022-12-11T10:59:49.381Z,21.90
2022-12-11T11:02:24.419Z,19.30
2022-12-11T11:04:51.509Z,17.90
2022-12-11T11:07:17.859Z,17.80
2022-12-11T11:09:44.608Z,20.30
2022-12-11T11:12:24.083Z,21.60
2022-12-11T11:15:01.576Z,21.90
2022-12-11T11:17:33.631Z,17.00
2022-12-11T11:20:06.728Z,19.50
2022-12-11T11:22:38.680Z,21.40
2022-12-11T11:25:05.809Z,22.70
2022-12-11T11:28:03.385Z,21.90
2022-12-11T11:30:40.080Z,18.10
2022-12-11T11:33:15.548Z,18.50
2022-12-11T11:35:52.439Z,19.60
2022-12-11T11:38:21.718Z,17.50
2022-12-11T11:41:03.902Z,20.50
2022-12-11T11:43:59.039Z,18.00
2022-12-11T11:46:35.758Z,19.20
2022-12-11T11:49:24.121Z,18.50
2022-12-11T11:52:03.701Z,17.00
2022-12-11T11:54:36.963Z,21.20
2022-12-11T11:57:13.353Z,22.40
2022-12-11T11:59:44.266Z,16.70
2022-12-11T12:02:15.996Z,20.30
2022-12-11T12:04:43.862Z,19.20
2022-12-11T12:07:24.106Z,21.50
2022-12-11T12:10:13.719Z,20.10
2022-12-11T12:12:52.058Z,18.50
2022-12-11T12:15:48.037Z,19.10
2022-12-11T12:18:42.573Z,15.00
2022-12-11T12:21:18.387Z,18.50
2022-12-11T12:23:53.401Z,15.60
2022-12-11T12:26:28.541Z,18.50
2022-12-11T12:29:20.895Z,19.00
2022-12-11T12:32:13.455Z,15.80
2022-12-11T12:34:45.811Z,15.20
2022-12-11T12:40:00.370Z,15.10
2022-12-11T12:42:45.351Z,14.50
2022-12-11T12:45:14.930Z,12.80
2022-12-11T12:47:43.059Z,13.80
2022-12-11T12:50:21.370Z,15.00
2022-12-11T12:52:48.656Z,14.20
2022-12-11T12:55:22.329Z,13.00
2022-12-11T12:58:06.641Z,14.10
2022-12-11T13:00:36.040Z,14.00
2022-12-11T13:03:26.301Z,15.30
2022-12-11T13:06:02.577Z,13.70
2022-12-11T13:08:46.239Z,13.70
2022-12-11T13:11:15.739Z,17.40
2022-12-11T13:14:02.396Z,14.30
2022-12-11T13:16:39.972Z,14.00
2022-12-11T13:19:17.370Z,15.10
2022-12-11T13:21:57.383Z,12.80
2022-12-11T13:24:26.890Z,13.00
2022-12-11T13:26:53.526Z,13.00
2022-12-11T13:29:46.681Z,12.30
2022-12-11T13:32:12.944Z,11.70
2022-12-11T13:34:41.611Z,10.40
2022-12-11T13:37:35.737Z,13.60
2022-12-11T13:40:06.032Z,10.50
2022-12-11T13:42:47.620Z,11.30
2022-12-11T13:45:43.955Z,13.10
2022-12-11T13:48:47.155Z,10.80
2022-12-11T13:51:22.046Z,10.60
2022-12-11T13:53:48.909Z,9.60
2022-12-11T13:56:17.967Z,11.70
2022-12-11T13:58:44.733Z,12.50
2022-12-11T14:01:15.436Z,14.90
2022-12-11T14:03:54.776Z,13.50
2022-12-11T14:06:21.461Z,12.60
2022-12-11T14:08:50.137Z,14.60
2022-12-11T14:11:30.411Z,12.90
2022-12-11T14:13:59.482Z,17.40
2022-12-11T14:16:27.246Z,11.20
2022-12-11T14:18:57.431Z,16.40
2022-12-11T14:21:25.348Z,13.70
2022-12-11T14:23:53.935Z,17.20
2022-12-11T14:26:25.963Z,18.80
2022-12-11T14:28:52.862Z,13.10
2022-12-11T14:31:33.228Z,19.40
2022-12-11T14:34:07.601Z,16.30
2022-12-11T14:36:34.712Z,18.20
2022-12-11T14:39:06.968Z,17.40
2022-12-11T14:44:04.651Z,15.90
2022-12-11T14:46:39.652Z,16.20
2022-12-11T14:49:17.360Z,13.90
2022-12-11T14:51:43.963Z,14.80
2022-12-11T14:54:32.597Z,16.40
2022-12-11T14:57:00.956Z,17.10
2022-12-11T14:59:32.088Z,14.90
2022-12-11T15:02:20.719Z,16.00
2022-12-11T15:05:00.795Z,11.00
2022-12-11T15:07:27.215Z,16.80
2022-12-11T15:09:53.687Z,15.90
2022-12-11T15:12:21.241Z,15.30
2022-12-11T15:14:56.808Z,14.80
2022-12-11T15:17:25.029Z,15.60
2022-12-11T15:19:54.345Z,14.40
2022-12-11T15:22:25.497Z,19.00
2022-12-11T15:24:53.388Z,15.50
2022-12-11T15:27:39.143Z,15.00
2022-12-11T15:30:18.011Z,11.90
2022-12-11T15:32:44.937Z,16.50
2022-12-11T15:35:25.876Z,13.50
2022-12-11T15:37:54.106Z,15.60
2022-12-11T15:40:21.371Z,14.70
2022-12-11T15:42:49.463Z,20.30
2022-12-11T15:45:18.489Z,13.90
2022-12-11T15:47:46.209Z,12.40
2022-12-11T15:50:21.920Z,12.60
2022-12-11T15:52:49.531Z,12.50
2022-12-11T15:55:17.075Z,16.30
2022-12-11T15:57:50.362Z,14.30
2022-12-11T16:00:18.714Z,14.20
2022-12-11T16:02:46.171Z,13.10
2022-12-11T16:05:14.010Z,12.60
2022-12-11T16:07:40.621Z,19.80
2022-12-11T16:10:07.893Z,12.60
2022-12-11T16:12:34.522Z,16.20
2022-12-11T16:15:01.112Z,13.30
2022-12-11T16:17:28.295Z,18.60
2022-12-11T16:19:55.256Z,13.50
2022-12-11T16:22:27.620Z,21.80
2022-12-11T16:27:23.377Z,23.20
2022-12-11T16:29:50.653Z,24.30
2022-12-11T16:32:18.024Z,20.20
2022-12-11T16:34:44.375Z,15.60
2022-12-11T16:37:11.136Z,18.10
2022-12-11T16:39:38.179Z,20.20
2022-12-11T16:42:05.657Z,18.10
2022-12-11T16:44:32.228Z,21.40
2022-12-11T16:46:58.661Z,21.90
2022-12-11T16:49:25.193Z,26.40
2022-12-11T16:51:52.124Z,17.60
2022-12-11T16:54:18.776Z,14.80
2022-12-11T16:56:45.475Z,21.80
2022-12-11T16:59:12.210Z,26.80
2022-12-11T17:01:38.822Z,23.50
2022-12-11T17:04:06.020Z,29.70
2022-12-11T17:06:33.091Z,22.80
2022-12-11T17:09:00.081Z,20.30
2022-12-11T17:11:26.531Z,24.40
2022-12-11T17:13:58.161Z,23.20
2022-12-11T17:16:28.247Z,28.10
2022-12-11T17:18:56.164Z,23.60
2022-12-11T17:21:23.381Z,22.40
2022-12-11T17:23:50.180Z,19.80
2022-12-11T17:26:17.702Z,18.60
2022-12-11T17:28:44.803Z,19.50
2022-12-11T17:31:15.211Z,18.70
2022-12-11T17:33:43.596Z,24.10
2022-12-11T17:36:12.723Z,23.20
2022-12-11T17:38:39.193Z,21.70
2022-12-11T17:41:08.581Z,22.10
2022-12-11T17:43:35.346Z,23.40
2022-12-11T17:46:02.852Z,20.20
2022-12-11T17:48:29.561Z,21.70
2022-12-11T17:50:56.257Z,95.70
2022-12-11T17:53:23.431Z,35.70
2022-12-11T17:55:51.067Z,29.00
2022-12-11T17:58:21.171Z,31.30
2022-12-11T18:00:52.814Z,24.20
2022-12-11T18:03:20.158Z,19.90
2022-12-11T18:05:49.913Z,23.60
2022-12-11T18:08:18.806Z,25.70
2022-12-11T18:10:45.431Z,23.70
2022-12-11T18:13:12.291Z,26.20
2022-12-11T18:15:39.234Z,20.80
2022-12-11T18:18:06.712Z,24.60
2022-12-11T18:20:33.826Z,23.00
2022-12-11T18:23:00.599Z,24.60
2022-12-11T18:25:27.190Z,21.60
2022-12-11T18:27:57.021Z,27.80
2022-12-11T18:30:24.264Z,23.10
2022-12-11T18:32:51.694Z,22.00
2022-12-11T18:35:18.820Z,23.40
2022-12-11T18:37:45.596Z,24.80
2022-12-11T18:40:11.955Z,22.20
2022-12-11T18:42:38.293Z,23.90
2022-12-11T18:45:06.301Z,22.50
2022-12-11T18:47:32.831Z,24.90
2022-12-11T18:50:03.930Z,23.70
2022-12-11T18:52:34.058Z,27.70
2022-12-11T18:55:00.637Z,22.00
2022-12-11T18:57:27.047Z,20.70
2022-12-11T18:59:54.051Z,24.40
2022-12-11T19:02:21.921Z,27.10
2022-12-11T19:04:48.666Z,25.70
2022-12-11T19:07:15.421Z,23.40
2022-12-11T19:09:47.572Z,26.80
2022-12-11T19:12:14.645Z,20.10
2022-12-11T19:14:41.107Z,20.90
2022-12-11T19:17:07.460Z,23.10
2022-12-11T19:19:34.106Z,21.30
2022-12-11T19:22:00.461Z,24.20
2022-12-11T19:24:27.119Z,23.30
2022-12-11T19:26:53.588Z,21.80
2022-12-11T19:29:22.667Z,21.50
2022-12-11T19:31:49.336Z,28.20
2022-12-11T19:34:18.033Z,25.90
2022-12-11T19:36:44.444Z,24.80
2022-12-11T19:39:13.280Z,23.50
2022-12-11T19:41:40.821Z,20.80
2022-12-11T19:44:07.766Z,23.40
2022-12-11T19:46:34.526Z,25.20
2022-12-11T19:49:02.257Z,23.50
2022-12-11T19:51:35.739Z,22.90
2022-12-11T19:54:02.201Z,23.40
2022-12-11T19:56:29.054Z,24.90
2022-12-11T19:58:55.720Z,24.30
2022-12-11T20:01:25.819Z,27.00
2022-12-11T20:03:57.683Z,24.90
2022-12-11T20:06:26.619Z,24.80
2022-12-11T20:08:53.172Z,23.30
2022-12-11T20:11:19.642Z,22.60
2022-12-11T20:13:47.450Z,24.10
2022-12-11T20:16:15.084Z,25.60
2022-12-11T20:18:41.705Z,25.90
2022-12-11T20:21:11.101Z,24.10
2022-12-11T20:23:37.873Z,28.30
2022-12-11T20:26:12.747Z,24.00
2022-12-11T20:28:39.478Z,23.80
2022-12-11T20:31:07.721Z,23.80
2022-12-11T20:33:34.615Z,23.20
2022-12-11T20:36:05.221Z,26.70
2022-12-11T20:38:35.494Z,24.30
2022-12-11T20:41:05.640Z,23.00
2022-12-11T20:43:33.173Z,25.30
2022-12-11T20:45:59.624Z,27.60
2022-12-11T20:48:26.098Z,26.10
2022-12-11T20:50:52.474Z,27.70
2022-12-11T20:53:18.870Z,26.00
2022-12-11T20:55:45.188Z,23.40
2022-12-11T20:58:11.524Z,23.10
2022-12-11T21:00:38.930Z,25.00
2022-12-11T21:03:05.728Z,23.30
2022-12-11T21:05:32.157Z,26.60
2022-12-11T21:07:58.595Z,27.10
2022-12-11T21:10:25.235Z,29.90
2022-12-11T21:12:51.615Z,23.60
2022-12-11T21:15:18.124Z,26.50
2022-12-11T21:17:45.097Z,22.50
2022-12-11T21:20:11.542Z,25.40
2022-12-11T21:22:38.234Z,23.30
2022-12-11T21:25:05.708Z,22.50
2022-12-11T21:27:32.225Z,23.60
2022-12-11T21:29:58.679Z,23.30
2022-12-11T21:32:25.332Z,26.80
2022-12-11T21:34:54.709Z,27.20
2022-12-11T21:37:21.128Z,22.50
2022-12-11T21:39:47.472Z,23.70
2022-12-11T21:42:13.852Z,24.60
2022-12-11T21:45:31.504Z,27.50
2022-12-11T21:47:30.497Z,28.70
2022-12-11T21:49:57.333Z,21.30
2022-12-11T21:52:23.722Z,23.00
2022-12-11T21:54:50.065Z,21.10
2022-12-11T21:57:18.995Z,24.50
2022-12-11T21:59:49.159Z,25.80
2022-12-11T22:02:15.608Z,24.80
2022-12-11T22:04:42.020Z,21.10
2022-12-11T22:07:08.329Z,23.50
2022-12-11T22:09:34.799Z,27.10
2022-12-11T22:12:01.145Z,26.60
2022-12-11T22:14:30.064Z,24.60
2022-12-11T22:16:57.707Z,25.00
2022-12-11T22:19:27.845Z,24.10
2022-12-11T22:21:58.923Z,22.60
2022-12-11T22:24:25.258Z,25.30
2022-12-11T22:26:53.720Z,25.50
2022-12-11T22:29:20.188Z,26.20
2022-12-11T22:31:46.858Z,24.40
2022-12-11T22:34:13.496Z,22.50
2022-12-11T22:36:40.009Z,27.50
2022-12-11T22:39:06.471Z,23.40
2022-12-11T22:41:33.181Z,23.80
2022-12-11T22:43:59.637Z,20.90
2022-12-11T22:46:28.261Z,24.60
2022-12-11T22:48:54.651Z,25.40
2022-12-11T22:51:22.256Z,25.80
2022-12-11T22:53:48.738Z,25.40
2022-12-11T22:56:15.160Z,24.80
2022-12-11T22:58:41.858Z,25.20
2022-12-11T23:01:10.695Z,27.10
2022-12-11T23:03:37.276Z,22.30
2022-12-11T23:06:08.306Z,26.30
2022-12-11T23:08:34.994Z,23.40
2022-12-11T23:11:02.569Z,26.70
2022-12-11T23:13:29.660Z,26.70
2022-12-11T23:15:56.129Z,23.70
2022-12-11T23:18:22.485Z,28.10
2022-12-11T23:20:49.208Z,27.70
2022-12-11T23:23:15.546Z,21.60
2022-12-11T23:25:41.882Z,26.40
2022-12-11T23:28:08.218Z,25.30
2022-12-11T23:30:34.650Z,25.60
2022-12-11T23:33:01.137Z,27.90
2022-12-11T23:35:27.528Z,20.00
2022-12-11T23:37:53.852Z,26.60
2022-12-11T23:40:20.203Z,26.80
2022-12-11T23:42:46.558Z,34.40
2022-12-11T23:45:13.054Z,26.70
2022-12-11T23:47:39.651Z,26.00
2022-12-11T23:50:06.512Z,27.20
2022-12-11T23:52:33.032Z,26.00
2022-12-11T23:54:59.363Z,20.90
2022-12-11T23:57:25.872Z,26.20
2022-12-11T23:59:52.158Z,27.90
